Aérodrome :
LOGIN :

S'inscrire | Disclaimer

   EN    FR    IT 

 










Légende :    VFR   VFR Marginal   IFR   IFR Intensif   IFR Très Intensif
Visi : 
Plafond : 
>= 8 km
>= 3000ft
5 à 8 km
1000 à 3000 ft
1500m à 5 km
500 à 1000 ft
800 à 1500m
200 à 500 ft
< 800m
< 200 ft
Symboles :   Orages  Brouillard  Fortes neiges  Fortes précipitations  Vent > 20 kt
SIGMETs :   Divers  Orages  Givrage  Turbulence  Onde Orograph.  Cendres Volcan.






- Altitude de l'aérodrome : 324 ft
- Code IATA : KVB


ESGR - Skovde

DERNIER METAR :
  • 271720Z AUTO 01002KT 6000 BR OVC002/// 00/00 Q1023

METARs EXPIRÉS :
  • 271650Z AUTO 22004KT 8000 BR FEW002/// OVC004/// 00/M00 Q1022
  • 271620Z AUTO 23001KT 7000 BR OVC004/// 00/M00 Q1022
  • 271550Z 21002KT 1200 R01/P2000N R19/P2000N OVC004 00/00 Q1022
  • 271520Z AUTO 00000KT 0900 R01/P2000N R19/P2000N OVC004/// 00/M00 Q1022
  • 271450Z AUTO 02002KT 0600 R01/P2000N R19/1400N FG VV003 00/M00 Q1022

TAF N/A



MET'MAP, la Météo Aéronautique d'un coup d'oeil ! - Copyright ORBIFLY Décembre 2007 - Disclaimer

ORBIFLY MET'MAP TEAM :

Programmation & Développement : Alexandra Zaïnal
Sur une idée originale de : Baudouin d'Aumeries
Assistance à la programmation : Marc-Olivier Méhu
Soutien technique & logistique : Manuel Goepfert

Contact : metmap@orbifly.com




SOURCES & CREDITS :

   NOAA